sensor_id;sensor_type;location;lat;lon;timestamp;P1;P2;P0
57563;PMS7003;43400;45.926;6.724;2023-01-06T00:00:13;10.80;9.80;7.00
57563;PMS7003;43400;45.926;6.724;2023-01-06T00:02:45;10.80;8.60;6.80
57563;PMS7003;43400;45.926;6.724;2023-01-06T00:05:17;9.75;9.75;7.50
57563;PMS7003;43400;45.926;6.724;2023-01-06T00:07:49;10.00;10.00;7.00
57563;PMS7003;43400;45.926;6.724;2023-01-06T00:10:22;9.00;8.60;6.00
57563;PMS7003;43400;45.926;6.724;2023-01-06T00:12:54;10.00;10.00;7.00
57563;PMS7003;43400;45.926;6.724;2023-01-06T00:15:26;11.00;10.00;7.00
57563;PMS7003;43400;45.926;6.724;2023-01-06T00:18:00;10.00;9.00;6.00
57563;PMS7003;43400;45.926;6.724;2023-01-06T00:20:32;7.50;7.50;6.00
57563;PMS7003;43400;45.926;6.724;2023-01-06T00:23:04;11.00;9.40;7.00
57563;PMS7003;43400;45.926;6.724;2023-01-06T00:25:36;6.00;6.00;5.60
57563;PMS7003;43400;45.926;6.724;2023-01-06T00:28:08;12.00;9.40;7.60
57563;PMS7003;43400;45.926;6.724;2023-01-06T00:30:40;9.00;9.00;5.25
57563;PMS7003;43400;45.926;6.724;2023-01-06T00:33:12;9.00;9.00;8.00
57563;PMS7003;43400;45.926;6.724;2023-01-06T00:35:44;9.80;9.00;5.80
57563;PMS7003;43400;45.926;6.724;2023-01-06T00:38:18;7.00;6.50;5.25
57563;PMS7003;43400;45.926;6.724;2023-01-06T00:40:50;8.25;7.50;6.00
57563;PMS7003;43400;45.926;6.724;2023-01-06T00:43:23;8.25;8.00;6.00
57563;PMS7003;43400;45.926;6.724;2023-01-06T00:45:55;8.50;7.00;5.00
57563;PMS7003;43400;45.926;6.724;2023-01-06T00:48:27;9.60;6.00;5.80
57563;PMS7003;43400;45.926;6.724;2023-01-06T00:50:59;6.50;6.50;4.75
57563;PMS7003;43400;45.926;6.724;2023-01-06T00:53:31;7.60;6.40;5.60
57563;PMS7003;43400;45.926;6.724;2023-01-06T00:56:03;8.00;8.00;6.00
57563;PMS7003;43400;45.926;6.724;2023-01-06T00:58:35;8.40;6.00;5.00
57563;PMS7003;43400;45.926;6.724;2023-01-06T01:01:07;5.00;5.00;5.00
57563;PMS7003;43400;45.926;6.724;2023-01-06T01:03:39;6.00;6.00;4.00
57563;PMS7003;43400;45.926;6.724;2023-01-06T01:06:11;5.25;5.00;4.00
57563;PMS7003;43400;45.926;6.724;2023-01-06T01:08:43;5.00;5.00;5.00
57563;PMS7003;43400;45.926;6.724;2023-01-06T01:11:15;18.80;15.40;9.60
57563;PMS7003;43400;45.926;6.724;2023-01-06T01:13:46;13.00;13.00;9.25
57563;PMS7003;43400;45.926;6.724;2023-01-06T01:16:18;21.50;19.00;14.00
57563;PMS7003;43400;45.926;6.724;2023-01-06T01:18:50;16.00;14.50;10.00
57563;PMS7003;43400;45.926;6.724;2023-01-06T01:21:22;14.00;14.00;10.00
57563;PMS7003;43400;45.926;6.724;2023-01-06T01:23:54;20.00;18.00;12.00
57563;PMS7003;43400;45.926;6.724;2023-01-06T01:26:27;25.50;22.50;14.00
57563;PMS7003;43400;45.926;6.724;2023-01-06T01:28:59;34.60;31.00;18.80
57563;PMS7003;43400;45.926;6.724;2023-01-06T01:31:31;39.00;36.50;20.25
57563;PMS7003;43400;45.926;6.724;2023-01-06T01:34:04;27.80;27.40;17.00
57563;PMS7003;43400;45.926;6.724;2023-01-06T01:36:36;31.40;31.20;16.40
57563;PMS7003;43400;45.926;6.724;2023-01-06T01:39:10;30.25;27.50;17.00
57563;PMS7003;43400;45.926;6.724;2023-01-06T01:41:43;22.00;21.50;16.00
57563;PMS7003;43400;45.926;6.724;2023-01-06T01:47:19;23.00;21.00;14.00
57563;PMS7003;43400;45.926;6.724;2023-01-06T01:49:57;29.00;26.25;16.25
57563;PMS7003;43400;45.926;6.724;2023-01-06T01:52:49;20.60;17.40;10.80
57563;PMS7003;43400;45.926;6.724;2023-01-06T01:55:24;17.00;13.00;10.00
57563;PMS7003;43400;45.926;6.724;2023-01-06T02:00:38;17.00;16.00;9.00
57563;PMS7003;43400;45.926;6.724;2023-01-06T02:03:13;14.00;12.25;9.25
57563;PMS7003;43400;45.926;6.724;2023-01-06T02:05:47;22.50;21.00;15.50
57563;PMS7003;43400;45.926;6.724;2023-01-06T02:08:35;20.60;19.20;14.00
57563;PMS7003;43400;45.926;6.724;2023-01-06T02:11:28;24.75;23.00;16.00
57563;PMS7003;43400;45.926;6.724;2023-01-06T02:14:13;34.00;31.20;20.20
57563;PMS7003;43400;45.926;6.724;2023-01-06T02:28:35;30.00;30.00;21.00
57563;PMS7003;43400;45.926;6.724;2023-01-06T02:43:04;22.00;22.00;16.00
57563;PMS7003;43400;45.926;6.724;2023-01-06T02:54:03;15.80;15.00;10.80
57563;PMS7003;43400;45.926;6.724;2023-01-06T02:56:59;34.60;32.40;21.00
57563;PMS7003;43400;45.926;6.724;2023-01-06T02:59:44;15.50;15.50;12.00
57563;PMS7003;43400;45.926;6.724;2023-01-06T03:02:21;20.25;17.50;13.00
57563;PMS7003;43400;45.926;6.724;2023-01-06T03:04:53;29.50;26.25;17.25
57563;PMS7003;43400;45.926;6.724;2023-01-06T03:07:26;67.25;55.50;30.75
57563;PMS7003;43400;45.926;6.724;2023-01-06T03:10:01;87.75;64.75;35.50
57563;PMS7003;43400;45.926;6.724;2023-01-06T03:12:40;58.60;47.60;27.00
57563;PMS7003;43400;45.926;6.724;2023-01-06T03:15:18;40.80;39.20;22.40
57563;PMS7003;43400;45.926;6.724;2023-01-06T03:17:50;20.75;20.00;13.00
57563;PMS7003;43400;45.926;6.724;2023-01-06T03:20:22;19.25;19.00;13.00
57563;PMS7003;43400;45.926;6.724;2023-01-06T03:22:54;10.00;9.00;6.00
57563;PMS7003;43400;45.926;6.724;2023-01-06T03:25:26;4.00;4.00;2.80
57563;PMS7003;43400;45.926;6.724;2023-01-06T03:27:57;6.40;5.60;4.60
57563;PMS7003;43400;45.926;6.724;2023-01-06T03:30:32;6.00;4.00;2.00
57563;PMS7003;43400;45.926;6.724;2023-01-06T03:33:24;3.00;3.00;3.00
57563;PMS7003;43400;45.926;6.724;2023-01-06T03:36:37;4.00;4.00;3.60
57563;PMS7003;43400;45.926;6.724;2023-01-06T03:39:24;4.00;4.00;3.50
57563;PMS7003;43400;45.926;6.724;2023-01-06T03:42:06;2.50;2.50;2.00
57563;PMS7003;43400;45.926;6.724;2023-01-06T03:45:04;4.00;4.00;4.00
57563;PMS7003;43400;45.926;6.724;2023-01-06T03:47:56;5.40;4.20;4.00
57563;PMS7003;43400;45.926;6.724;2023-01-06T03:50:56;5.00;4.00;2.00
57563;PMS7003;43400;45.926;6.724;2023-01-06T03:53:35;4.00;2.00;2.00
57563;PMS7003;43400;45.926;6.724;2023-01-06T03:56:21;4.25;4.25;4.00
57563;PMS7003;43400;45.926;6.724;2023-01-06T03:58:56;5.80;5.80;5.00
57563;PMS7003;43400;45.926;6.724;2023-01-06T04:01:31;4.25;4.00;2.00
57563;PMS7003;43400;45.926;6.724;2023-01-06T04:04:03;2.80;2.00;2.00
57563;PMS7003;43400;45.926;6.724;2023-01-06T04:06:35;2.00;2.00;1.50
57563;PMS7003;43400;45.926;6.724;2023-01-06T04:09:07;2.00;2.00;2.00
57563;PMS7003;43400;45.926;6.724;2023-01-06T04:11:39;2.00;2.00;2.00
57563;PMS7003;43400;45.926;6.724;2023-01-06T04:14:11;4.60;4.00;3.60
57563;PMS7003;43400;45.926;6.724;2023-01-06T04:16:44;3.60;3.60;3.60
57563;PMS7003;43400;45.926;6.724;2023-01-06T04:19:15;4.25;4.00;2.50
57563;PMS7003;43400;45.926;6.724;2023-01-06T04:21:47;2.50;2.50;2.00
57563;PMS7003;43400;45.926;6.724;2023-01-06T04:24:19;4.00;4.00;2.00
57563;PMS7003;43400;45.926;6.724;2023-01-06T04:26:50;1.00;1.00;1.00
57563;PMS7003;43400;45.926;6.724;2023-01-06T04:29:21;4.00;2.00;1.00
57563;PMS7003;43400;45.926;6.724;2023-01-06T04:31:53;1.20;1.20;1.20
57563;PMS7003;43400;45.926;6.724;2023-01-06T04:34:25;1.20;1.20;1.20
57563;PMS7003;43400;45.926;6.724;2023-01-06T04:36:56;1.25;1.25;0.75
57563;PMS7003;43400;45.926;6.724;2023-01-06T04:39:28;1.75;1.00;1.00
57563;PMS7003;43400;45.926;6.724;2023-01-06T04:42:00;1.80;1.80;1.00
57563;PMS7003;43400;45.926;6.724;2023-01-06T04:44:31;2.00;2.00;1.25
57563;PMS7003;43400;45.926;6.724;2023-01-06T04:47:03;2.00;2.00;1.40
57563;PMS7003;43400;45.926;6.724;2023-01-06T04:49:35;4.60;4.60;4.00
57563;PMS7003;43400;45.926;6.724;2023-01-06T04:52:06;9.00;8.00;5.50
57563;PMS7003;43400;45.926;6.724;2023-01-06T04:54:38;5.00;4.00;2.00
57563;PMS7003;43400;45.926;6.724;2023-01-06T04:57:09;5.75;4.75;4.00
57563;PMS7003;43400;45.926;6.724;2023-01-06T04:59:41;5.00;5.00;4.50
57563;PMS7003;43400;45.926;6.724;2023-01-06T05:02:12;5.50;5.50;4.50
57563;PMS7003;43400;45.926;6.724;2023-01-06T05:04:44;5.00;5.00;4.00
57563;PMS7003;43400;45.926;6.724;2023-01-06T05:07:16;4.00;4.00;2.00
57563;PMS7003;43400;45.926;6.724;2023-01-06T05:09:47;1.50;1.50;1.00
57563;PMS7003;43400;45.926;6.724;2023-01-06T05:12:19;4.00;2.00;2.00
57563;PMS7003;43400;45.926;6.724;2023-01-06T05:14:50;5.20;4.40;4.00
57563;PMS7003;43400;45.926;6.724;2023-01-06T05:17:22;6.00;6.00;5.00
57563;PMS7003;43400;45.926;6.724;2023-01-06T05:19:54;4.20;4.20;4.00
57563;PMS7003;43400;45.926;6.724;2023-01-06T05:22:25;7.80;7.80;5.40
57563;PMS7003;43400;45.926;6.724;2023-01-06T05:24:57;4.50;4.50;4.00
57563;PMS7003;43400;45.926;6.724;2023-01-06T05:27:29;9.00;9.00;8.00
57563;PMS7003;43400;45.926;6.724;2023-01-06T05:30:00;8.20;6.40;5.20
57563;PMS7003;43400;45.926;6.724;2023-01-06T05:32:32;13.00;12.00;10.50
57563;PMS7003;43400;45.926;6.724;2023-01-06T05:35:04;6.50;5.75;5.00
57563;PMS7003;43400;45.926;6.724;2023-01-06T05:37:36;10.50;10.50;8.75
57563;PMS7003;43400;45.926;6.724;2023-01-06T05:40:08;8.00;5.75;5.00
57563;PMS7003;43400;45.926;6.724;2023-01-06T05:42:40;4.60;4.60;4.20
57563;PMS7003;43400;45.926;6.724;2023-01-06T05:45:11;4.80;4.80;3.60
57563;PMS7003;43400;45.926;6.724;2023-01-06T05:47:43;23.25;20.50;15.75
57563;PMS7003;43400;45.926;6.724;2023-01-06T05:50:15;11.20;11.20;9.00
57563;PMS7003;43400;45.926;6.724;2023-01-06T05:52:46;12.25;9.50;8.00
57563;PMS7003;43400;45.926;6.724;2023-01-06T05:55:18;12.00;12.00;9.00
57563;PMS7003;43400;45.926;6.724;2023-01-06T05:57:49;11.20;10.20;6.40
57563;PMS7003;43400;45.926;6.724;2023-01-06T06:00:21;18.00;16.00;11.00
57563;PMS7003;43400;45.926;6.724;2023-01-06T06:02:53;18.25;17.50;14.50
57563;PMS7003;43400;45.926;6.724;2023-01-06T06:05:25;12.00;12.00;9.80
57563;PMS7003;43400;45.926;6.724;2023-01-06T06:07:57;18.00;16.00;13.00
57563;PMS7003;43400;45.926;6.724;2023-01-06T06:10:28;18.00;18.00;13.40
57563;PMS7003;43400;45.926;6.724;2023-01-06T06:13:00;11.00;11.00;10.50
57563;PMS7003;43400;45.926;6.724;2023-01-06T06:15:32;16.00;15.00;11.40
57563;PMS7003;43400;45.926;6.724;2023-01-06T06:18:03;18.25;18.00;12.00
57563;PMS7003;43400;45.926;6.724;2023-01-06T06:20:35;43.75;40.75;29.00
57563;PMS7003;43400;45.926;6.724;2023-01-06T06:23:07;35.80;35.60;25.20
57563;PMS7003;43400;45.926;6.724;2023-01-06T06:25:38;23.80;22.80;18.00
57563;PMS7003;43400;45.926;6.724;2023-01-06T06:28:10;18.00;18.00;13.00
57563;PMS7003;43400;45.926;6.724;2023-01-06T06:30:42;22.80;21.80;15.80
57563;PMS7003;43400;45.926;6.724;2023-01-06T06:33:13;20.75;20.50;15.25
57563;PMS7003;43400;45.926;6.724;2023-01-06T06:35:54;23.00;22.00;18.00
57563;PMS7003;43400;45.926;6.724;2023-01-06T06:38:26;25.00;19.50;15.00
57563;PMS7003;43400;45.926;6.724;2023-01-06T06:40:58;19.60;18.00;14.20
57563;PMS7003;43400;45.926;6.724;2023-01-06T06:43:30;17.60;16.60;12.00
57563;PMS7003;43400;45.926;6.724;2023-01-06T06:46:02;19.50;18.00;13.75
57563;PMS7003;43400;45.926;6.724;2023-01-06T06:48:34;17.25;16.00;13.00
57563;PMS7003;43400;45.926;6.724;2023-01-06T06:51:06;25.75;22.25;14.75
57563;PMS7003;43400;45.926;6.724;2023-01-06T06:53:42;24.20;22.60;16.40
57563;PMS7003;43400;45.926;6.724;2023-01-06T06:56:15;22.60;21.60;17.20
57563;PMS7003;43400;45.926;6.724;2023-01-06T06:58:47;21.00;20.00;14.75
57563;PMS7003;43400;45.926;6.724;2023-01-06T07:01:19;22.20;21.80;16.00
57563;PMS7003;43400;45.926;6.724;2023-01-06T07:03:51;21.00;19.00;15.00
57563;PMS7003;43400;45.926;6.724;2023-01-06T07:06:23;16.00;15.25;12.00
57563;PMS7003;43400;45.926;6.724;2023-01-06T07:08:56;14.00;14.00;11.00
57563;PMS7003;43400;45.926;6.724;2023-01-06T07:11:28;13.50;12.00;9.00
57563;PMS7003;43400;45.926;6.724;2023-01-06T07:14:00;16.50;15.25;12.50
57563;PMS7003;43400;45.926;6.724;2023-01-06T07:16:31;13.50;13.50;11.00
57563;PMS7003;43400;45.926;6.724;2023-01-06T07:19:03;16.00;15.20;12.00
57563;PMS7003;43400;45.926;6.724;2023-01-06T07:21:34;17.00;16.00;11.50
57563;PMS7003;43400;45.926;6.724;2023-01-06T07:24:06;16.00;15.80;14.00
57563;PMS7003;43400;45.926;6.724;2023-01-06T07:26:38;14.80;14.80;9.00
57563;PMS7003;43400;45.926;6.724;2023-01-06T07:29:09;13.50;11.75;9.00
57563;PMS7003;43400;45.926;6.724;2023-01-06T07:31:41;14.00;11.80;9.00
57563;PMS7003;43400;45.926;6.724;2023-01-06T07:34:12;15.40;12.00;9.00
57563;PMS7003;43400;45.926;6.724;2023-01-06T07:36:44;11.00;11.00;8.00
57563;PMS7003;43400;45.926;6.724;2023-01-06T07:39:15;8.60;8.00;7.00
57563;PMS7003;43400;45.926;6.724;2023-01-06T07:41:47;11.75;11.75;7.75
57563;PMS7003;43400;45.926;6.724;2023-01-06T07:44:19;12.80;9.00;7.00
57563;PMS7003;43400;45.926;6.724;2023-01-06T07:46:50;9.50;8.00;7.00
57563;PMS7003;43400;45.926;6.724;2023-01-06T07:49:22;7.25;7.25;7.00
57563;PMS7003;43400;45.926;6.724;2023-01-06T07:51:53;8.00;8.00;7.40
57563;PMS7003;43400;45.926;6.724;2023-01-06T07:54:25;7.80;7.80;5.80
57563;PMS7003;43400;45.926;6.724;2023-01-06T07:56:57;7.00;5.00;4.00
57563;PMS7003;43400;45.926;6.724;2023-01-06T07:59:28;8.75;8.75;7.00
57563;PMS7003;43400;45.926;6.724;2023-01-06T08:02:00;7.00;5.50;4.75
57563;PMS7003;43400;45.926;6.724;2023-01-06T08:04:35;5.40;5.40;5.00
57563;PMS7003;43400;45.926;6.724;2023-01-06T08:07:07;4.00;4.00;2.80
57563;PMS7003;43400;45.926;6.724;2023-01-06T08:09:39;4.00;4.00;3.60
57563;PMS7003;43400;45.926;6.724;2023-01-06T08:12:10;7.00;7.00;4.25
57563;PMS7003;43400;45.926;6.724;2023-01-06T08:14:42;7.80;7.60;6.60
57563;PMS7003;43400;45.926;6.724;2023-01-06T08:17:13;5.50;5.50;5.00
57563;PMS7003;43400;45.926;6.724;2023-01-06T08:19:45;8.00;8.00;6.40
57563;PMS7003;43400;45.926;6.724;2023-01-06T08:22:16;12.00;11.00;8.00
57563;PMS7003;43400;45.926;6.724;2023-01-06T08:24:48;19.40;19.40;12.00
57563;PMS7003;43400;45.926;6.724;2023-01-06T08:27:20;42.50;40.00;25.00
57563;PMS7003;43400;45.926;6.724;2023-01-06T08:29:51;35.00;31.50;22.00
57563;PMS7003;43400;45.926;6.724;2023-01-06T08:32:23;27.00;25.20;16.40
57563;PMS7003;43400;45.926;6.724;2023-01-06T08:34:55;50.00;43.50;27.00
57563;PMS7003;43400;45.926;6.724;2023-01-06T08:37:26;36.80;33.20;22.00
57563;PMS7003;43400;45.926;6.724;2023-01-06T08:39:58;27.20;26.40;16.40
57563;PMS7003;43400;45.926;6.724;2023-01-06T08:42:30;31.50;30.25;19.50
57563;PMS7003;43400;45.926;6.724;2023-01-06T08:45:01;23.40;23.40;16.00
57563;PMS7003;43400;45.926;6.724;2023-01-06T08:47:33;25.25;22.50;16.00
57563;PMS7003;43400;45.926;6.724;2023-01-06T08:50:05;22.60;22.60;16.80
57563;PMS7003;43400;45.926;6.724;2023-01-06T08:52:37;12.00;12.00;9.00
57563;PMS7003;43400;45.926;6.724;2023-01-06T08:55:09;13.80;13.80;11.00
57563;PMS7003;43400;45.926;6.724;2023-01-06T08:57:40;18.50;18.00;11.75
57563;PMS7003;43400;45.926;6.724;2023-01-06T09:00:12;16.00;16.00;12.00
57563;PMS7003;43400;45.926;6.724;2023-01-06T09:02:44;17.60;15.00;10.20
57563;PMS7003;43400;45.926;6.724;2023-01-06T09:05:15;29.50;26.00;19.25
57563;PMS7003;43400;45.926;6.724;2023-01-06T09:07:47;29.60;28.80;19.20
57563;PMS7003;43400;45.926;6.724;2023-01-06T09:10:19;36.75;32.00;18.75
57563;PMS7003;43400;45.926;6.724;2023-01-06T09:16:56;40.00;39.25;25.00
57563;PMS7003;43400;45.926;6.724;2023-01-06T09:19:28;29.80;28.40;18.60
57563;PMS7003;43400;45.926;6.724;2023-01-06T09:22:00;25.75;22.75;15.75
57563;PMS7003;43400;45.926;6.724;2023-01-06T09:24:31;11.00;11.00;7.50
57563;PMS7003;43400;45.926;6.724;2023-01-06T09:27:03;10.60;10.60;6.00
57563;PMS7003;43400;45.926;6.724;2023-01-06T09:29:34;12.00;12.00;8.50
57563;PMS7003;43400;45.926;6.724;2023-01-06T09:32:06;13.50;13.50;11.00
57563;PMS7003;43400;45.926;6.724;2023-01-06T09:34:37;13.00;13.00;10.60
57563;PMS7003;43400;45.926;6.724;2023-01-06T09:37:09;18.50;15.75;11.00
57563;PMS7003;43400;45.926;6.724;2023-01-06T09:39:41;22.40;20.80;16.00
57563;PMS7003;43400;45.926;6.724;2023-01-06T09:45:18;55.00;48.25;31.25
57563;PMS7003;43400;45.926;6.724;2023-01-06T09:47:56;52.25;46.75;30.00
57563;PMS7003;43400;45.926;6.724;2023-01-06T09:50:37;51.25;45.00;30.00
57563;PMS7003;43400;45.926;6.724;2023-01-06T09:53:13;47.75;44.00;30.00
57563;PMS7003;43400;45.926;6.724;2023-01-06T09:55:52;44.20;41.00;29.00
57563;PMS7003;43400;45.926;6.724;2023-01-06T10:01:01;32.50;32.50;22.75
57563;PMS7003;43400;45.926;6.724;2023-01-06T10:03:37;24.00;23.50;19.00
57563;PMS7003;43400;45.926;6.724;2023-01-06T10:06:24;27.50;27.00;20.00
57563;PMS7003;43400;45.926;6.724;2023-01-06T10:09:20;16.60;15.00;11.00
57563;PMS7003;43400;45.926;6.724;2023-01-06T10:20:44;19.20;18.20;13.00
57563;PMS7003;43400;45.926;6.724;2023-01-06T10:26:19;14.40;14.40;10.40
57563;PMS7003;43400;45.926;6.724;2023-01-06T10:29:05;17.00;17.00;11.00
57563;PMS7003;43400;45.926;6.724;2023-01-06T10:31:48;23.80;23.80;16.00
57563;PMS7003;43400;45.926;6.724;2023-01-06T10:34:24;16.50;14.50;12.00
57563;PMS7003;43400;45.926;6.724;2023-01-06T10:39:32;12.00;12.00;9.00
57563;PMS7003;43400;45.926;6.724;2023-01-06T10:42:22;7.50;7.50;6.00
57563;PMS7003;43400;45.926;6.724;2023-01-06T10:44:57;8.75;8.75;7.00
57563;PMS7003;43400;45.926;6.724;2023-01-06T10:47:29;9.00;8.00;7.25
57563;PMS7003;43400;45.926;6.724;2023-01-06T10:50:02;10.00;10.00;8.00
57563;PMS7003;43400;45.926;6.724;2023-01-06T10:52:35;7.00;5.50;4.50
57563;PMS7003;43400;45.926;6.724;2023-01-06T10:55:08;5.00;5.00;4.00
57563;PMS7003;43400;45.926;6.724;2023-01-06T10:57:56;23.00;23.00;20.00
57563;PMS7003;43400;45.926;6.724;2023-01-06T11:01:11;15.75;14.75;12.00
57563;PMS7003;43400;45.926;6.724;2023-01-06T11:03:43;56.25;47.00;35.50
57563;PMS7003;43400;45.926;6.724;2023-01-06T11:08:46;4.00;3.00;3.00
57563;PMS7003;43400;45.926;6.724;2023-01-06T11:11:18;3.00;3.00;3.00
57563;PMS7003;43400;45.926;6.724;2023-01-06T11:13:54;3.20;3.20;3.00
57563;PMS7003;43400;45.926;6.724;2023-01-06T11:16:30;6.00;6.00;5.25
57563;PMS7003;43400;45.926;6.724;2023-01-06T11:19:04;7.00;7.00;6.00
57563;PMS7003;43400;45.926;6.724;2023-01-06T11:24:25;7.50;6.50;5.50
57563;PMS7003;43400;45.926;6.724;2023-01-06T11:26:59;6.25;6.25;6.00
57563;PMS7003;43400;45.926;6.724;2023-01-06T11:29:33;4.80;4.80;3.80
57563;PMS7003;43400;45.926;6.724;2023-01-06T11:32:13;4.60;4.60;4.00
57563;PMS7003;43400;45.926;6.724;2023-01-06T11:34:55;3.00;3.00;3.00
57563;PMS7003;43400;45.926;6.724;2023-01-06T11:37:36;3.00;3.00;3.00
57563;PMS7003;43400;45.926;6.724;2023-01-06T11:40:18;2.80;2.40;2.40
57563;PMS7003;43400;45.926;6.724;2023-01-06T11:42:55;2.60;2.60;2.00
57563;PMS7003;43400;45.926;6.724;2023-01-06T11:45:31;3.60;3.60;3.00
57563;PMS7003;43400;45.926;6.724;2023-01-06T11:48:25;3.80;2.80;2.00
57563;PMS7003;43400;45.926;6.724;2023-01-06T11:51:05;3.00;3.00;2.60
57563;PMS7003;43400;45.926;6.724;2023-01-06T11:53:38;4.00;3.50;3.50
57563;PMS7003;43400;45.926;6.724;2023-01-06T11:56:25;3.00;3.00;3.00
57563;PMS7003;43400;45.926;6.724;2023-01-06T12:04:35;4.00;4.00;3.75
57563;PMS7003;43400;45.926;6.724;2023-01-06T12:10:15;5.00;4.75;4.00
57563;PMS7003;43400;45.926;6.724;2023-01-06T12:12:53;2.00;2.00;2.00
57563;PMS7003;43400;45.926;6.724;2023-01-06T12:15:26;3.20;3.20;3.00
57563;PMS7003;43400;45.926;6.724;2023-01-06T12:18:01;4.00;4.00;3.00
57563;PMS7003;43400;45.926;6.724;2023-01-06T12:20:42;4.60;4.60;4.00
57563;PMS7003;43400;45.926;6.724;2023-01-06T12:23:21;4.40;4.40;3.40
57563;PMS7003;43400;45.926;6.724;2023-01-06T12:25:57;3.00;3.00;3.00
57563;PMS7003;43400;45.926;6.724;2023-01-06T12:28:33;3.00;3.00;3.00
57563;PMS7003;43400;45.926;6.724;2023-01-06T12:34:25;4.00;3.00;2.00
57563;PMS7003;43400;45.926;6.724;2023-01-06T12:37:19;2.80;2.80;2.00
57563;PMS7003;43400;45.926;6.724;2023-01-06T12:42:54;1.75;1.75;1.75
57563;PMS7003;43400;45.926;6.724;2023-01-06T12:48:30;1.00;1.00;1.00
57563;PMS7003;43400;45.926;6.724;2023-01-06T12:54:01;2.00;2.00;1.00
57563;PMS7003;43400;45.926;6.724;2023-01-06T13:05:24;1.40;1.40;1.40
57563;PMS7003;43400;45.926;6.724;2023-01-06T13:13:54;2.00;2.00;1.60
57563;PMS7003;43400;45.926;6.724;2023-01-06T13:19:13;0.40;0.40;0.00
57563;PMS7003;43400;45.926;6.724;2023-01-06T13:21:49;1.00;1.00;1.00
57563;PMS7003;43400;45.926;6.724;2023-01-06T13:30:06;2.00;2.00;2.00
57563;PMS7003;43400;45.926;6.724;2023-01-06T13:35:57;1.40;1.40;0.40
57563;PMS7003;43400;45.926;6.724;2023-01-06T13:38:56;2.00;2.00;1.50
57563;PMS7003;43400;45.926;6.724;2023-01-06T13:41:35;4.00;3.00;2.00
57563;PMS7003;43400;45.926;6.724;2023-01-06T13:44:20;2.25;2.25;2.25
57563;PMS7003;43400;45.926;6.724;2023-01-06T13:47:03;3.00;3.00;3.00
57563;PMS7003;43400;45.926;6.724;2023-01-06T13:49:39;12.25;12.25;8.75
57563;PMS7003;43400;45.926;6.724;2023-01-06T13:52:15;30.20;29.60;18.80
57563;PMS7003;43400;45.926;6.724;2023-01-06T13:57:48;4.25;4.25;3.75
57563;PMS7003;43400;45.926;6.724;2023-01-06T14:00:24;3.60;3.60;3.60
57563;PMS7003;43400;45.926;6.724;2023-01-06T14:02:58;4.60;4.60;3.60
57563;PMS7003;43400;45.926;6.724;2023-01-06T14:08:03;3.60;3.60;3.20
57563;PMS7003;43400;45.926;6.724;2023-01-06T14:10:47;5.00;4.00;3.20
57563;PMS7003;43400;45.926;6.724;2023-01-06T14:16:00;5.00;5.00;4.00
57563;PMS7003;43400;45.926;6.724;2023-01-06T14:21:17;4.75;4.75;4.00
57563;PMS7003;43400;45.926;6.724;2023-01-06T14:24:03;4.75;4.75;3.00
57563;PMS7003;43400;45.926;6.724;2023-01-06T14:34:51;3.00;3.00;2.50
57563;PMS7003;43400;45.926;6.724;2023-01-06T14:37:25;4.00;4.00;3.00
57563;PMS7003;43400;45.926;6.724;2023-01-06T14:42:58;4.00;4.00;4.00
57563;PMS7003;43400;45.926;6.724;2023-01-06T14:45:37;7.00;5.60;4.00
57563;PMS7003;43400;45.926;6.724;2023-01-06T14:48:15;4.00;4.00;3.00
57563;PMS7003;43400;45.926;6.724;2023-01-06T14:50:50;4.00;4.00;3.40
57563;PMS7003;43400;45.926;6.724;2023-01-06T14:53:30;4.00;4.00;3.60
57563;PMS7003;43400;45.926;6.724;2023-01-06T14:56:05;4.60;4.00;3.40
57563;PMS7003;43400;45.926;6.724;2023-01-06T14:58:41;3.60;3.60;3.00
57563;PMS7003;43400;45.926;6.724;2023-01-06T15:01:20;3.25;3.25;3.00
57563;PMS7003;43400;45.926;6.724;2023-01-06T15:03:58;3.50;3.50;3.00
57563;PMS7003;43400;45.926;6.724;2023-01-06T15:06:33;4.00;4.00;3.20
57563;PMS7003;43400;45.926;6.724;2023-01-06T15:09:38;2.80;2.80;2.00
57563;PMS7003;43400;45.926;6.724;2023-01-06T15:12:02;4.00;4.00;4.00
57563;PMS7003;43400;45.926;6.724;2023-01-06T15:14:34;4.00;4.00;3.00
57563;PMS7003;43400;45.926;6.724;2023-01-06T15:17:06;4.00;4.00;3.00
57563;PMS7003;43400;45.926;6.724;2023-01-06T15:19:40;4.00;4.00;3.25
57563;PMS7003;43400;45.926;6.724;2023-01-06T15:22:17;3.00;3.00;3.00
57563;PMS7003;43400;45.926;6.724;2023-01-06T15:24:51;4.20;4.20;3.60
57563;PMS7003;43400;45.926;6.724;2023-01-06T15:27:22;6.00;6.00;5.00
57563;PMS7003;43400;45.926;6.724;2023-01-06T15:29:55;11.00;11.00;7.00
57563;PMS7003;43400;45.926;6.724;2023-01-06T15:32:27;11.40;11.00;8.80
57563;PMS7003;43400;45.926;6.724;2023-01-06T15:34:59;8.00;8.00;7.25
57563;PMS7003;43400;45.926;6.724;2023-01-06T15:37:31;6.25;5.50;3.50
57563;PMS7003;43400;45.926;6.724;2023-01-06T15:40:03;4.80;4.80;4.00
57563;PMS7003;43400;45.926;6.724;2023-01-06T15:42:35;4.60;4.00;3.00
57563;PMS7003;43400;45.926;6.724;2023-01-06T15:45:23;8.80;7.40;5.00
57563;PMS7003;43400;45.926;6.724;2023-01-06T15:47:57;6.00;6.00;4.50
57563;PMS7003;43400;45.926;6.724;2023-01-06T15:50:39;6.00;6.00;4.00
57563;PMS7003;43400;45.926;6.724;2023-01-06T15:53:19;7.67;6.00;4.00
57563;PMS7003;43400;45.926;6.724;2023-01-06T15:55:54;8.00;8.00;6.80
57563;PMS7003;43400;45.926;6.724;2023-01-06T15:58:26;17.00;17.00;13.00
57563;PMS7003;43400;45.926;6.724;2023-01-06T16:01:05;10.20;8.60;7.80
57563;PMS7003;43400;45.926;6.724;2023-01-06T16:03:37;9.00;8.40;6.00
57563;PMS7003;43400;45.926;6.724;2023-01-06T16:06:11;9.00;8.25;7.00
57563;PMS7003;43400;45.926;6.724;2023-01-06T16:08:44;12.00;12.00;8.20
57563;PMS7003;43400;45.926;6.724;2023-01-06T16:18:51;12.60;10.20;8.00
57563;PMS7003;43400;45.926;6.724;2023-01-06T16:24:00;7.20;7.20;6.00
57563;PMS7003;43400;45.926;6.724;2023-01-06T16:26:40;6.00;6.00;5.00
57563;PMS7003;43400;45.926;6.724;2023-01-06T16:29:26;7.20;7.20;6.00
57563;PMS7003;43400;45.926;6.724;2023-01-06T16:32:16;10.60;10.00;7.00
57563;PMS7003;43400;45.926;6.724;2023-01-06T16:34:50;8.40;7.40;5.80
57563;PMS7003;43400;45.926;6.724;2023-01-06T16:37:24;6.50;6.50;5.50
57563;PMS7003;43400;45.926;6.724;2023-01-06T16:39:58;6.60;6.60;5.60
57563;PMS7003;43400;45.926;6.724;2023-01-06T16:42:34;8.00;8.00;6.75
57563;PMS7003;43400;45.926;6.724;2023-01-06T16:45:17;14.75;14.25;11.75
57563;PMS7003;43400;45.926;6.724;2023-01-06T16:47:58;14.00;14.00;11.00
57563;PMS7003;43400;45.926;6.724;2023-01-06T16:53:11;12.00;11.00;8.00
57563;PMS7003;43400;45.926;6.724;2023-01-06T16:55:55;8.25;7.25;6.25
57563;PMS7003;43400;45.926;6.724;2023-01-06T16:58:27;9.00;9.00;6.50
57563;PMS7003;43400;45.926;6.724;2023-01-06T17:01:03;10.00;10.00;7.67
57563;PMS7003;43400;45.926;6.724;2023-01-06T17:03:44;10.00;9.50;7.00
57563;PMS7003;43400;45.926;6.724;2023-01-06T17:06:28;10.00;10.00;7.00
57563;PMS7003;43400;45.926;6.724;2023-01-06T17:09:15;11.60;10.00;7.00
57563;PMS7003;43400;45.926;6.724;2023-01-06T17:11:51;10.25;10.25;8.50
57563;PMS7003;43400;45.926;6.724;2023-01-06T17:14:23;8.60;8.40;7.00
57563;PMS7003;43400;45.926;6.724;2023-01-06T17:16:54;8.20;7.00;6.20
57563;PMS7003;43400;45.926;6.724;2023-01-06T17:19:29;8.60;8.60;7.00